Time;durP1;ratioP1;P1;durP2;ratioP2;P2;SDS_P1;SDS_P2;PMS_P1;PMS_P2;Temp;Humidity;BMP_temperature;BMP_pressure;BME280_temperature;BME280_humidity;BME280_pressure;Samples;Min_cycle;Max_cycle;Signal;HPM_P1;HPM_P2
2023/12/18 00:01:25;;;;;;;2.60;1.20;;;0.60;99.90;;;;;;4966459;28;20059;-81
2023/12/18 00:03:51;;;;;;;6.78;2.33;;;0.60;99.90;;;;;;4958448;28;20050;-80
2023/12/18 00:06:17;;;;;;;4.40;2.28;;;0.70;99.90;;;;;;4938419;29;20485;-79
2023/12/18 00:08:43;;;;;;;6.20;2.28;;;0.70;99.90;;;;;;4944418;28;20083;-82
2023/12/18 00:11:09;;;;;;;9.18;1.60;;;0.60;99.90;;;;;;4957280;28;20020;-81
2023/12/18 00:13:35;;;;;;;3.55;1.67;;;0.60;99.90;;;;;;4933620;29;20051;-80
2023/12/18 00:16:01;;;;;;;5.22;1.27;;;0.60;99.90;;;;;;4956870;28;20383;-82
2023/12/18 00:18:27;;;;;;;5.03;2.22;;;0.60;99.90;;;;;;4939451;29;20037;-82
2023/12/18 00:20:53;;;;;;;3.58;1.92;;;0.60;99.90;;;;;;4942963;28;20106;-81
2023/12/18 00:23:19;;;;;;;2.78;1.77;;;0.60;99.90;;;;;;4957640;28;20023;-82
2023/12/18 00:25:45;;;;;;;3.58;1.73;;;0.60;99.90;;;;;;4949999;28;20046;-82
2023/12/18 00:28:11;;;;;;;6.75;2.00;;;0.60;99.90;;;;;;4959683;28;20138;-82
2023/12/18 00:30:37;;;;;;;5.38;1.70;;;0.60;99.90;;;;;;4954969;28;20401;-81
2023/12/18 00:33:03;;;;;;;3.70;1.40;;;0.60;99.90;;;;;;4956288;28;20026;-82
2023/12/18 00:35:29;;;;;;;5.60;2.00;;;0.60;99.90;;;;;;4936716;29;20069;-81
2023/12/18 00:37:55;;;;;;;3.58;1.73;;;0.60;99.90;;;;;;4966832;28;20110;-82
2023/12/18 00:40:21;;;;;;;7.13;2.25;;;0.60;99.90;;;;;;4972653;28;20038;-81
2023/12/18 00:42:49;;;;;;;6.43;2.05;;;0.60;99.90;;;;;;4978704;28;20027;-82
2023/12/18 00:45:15;;;;;;;4.68;1.35;;;0.60;99.90;;;;;;4962826;28;20110;-81
2023/12/18 00:47:42;;;;;;;4.88;1.90;;;0.60;99.90;;;;;;4954692;29;20114;-82
2023/12/18 00:50:10;;;;;;;5.03;2.17;;;0.50;99.90;;;;;;4954712;28;20027;-80
2023/12/18 00:52:39;;;;;;;6.28;1.50;;;0.50;99.90;;;;;;4958169;28;20030;-81
2023/12/18 00:55:06;;;;;;;3.55;2.15;;;0.60;99.90;;;;;;4941787;29;20156;-81
2023/12/18 00:57:32;;;;;;;3.47;1.40;;;0.50;99.90;;;;;;4943238;28;20037;-81
2023/12/18 00:59:59;;;;;;;9.32;2.67;;;0.50;99.90;;;;;;4954123;28;20031;-82
2023/12/18 01:02:25;;;;;;;3.75;1.73;;;0.60;99.90;;;;;;4953825;28;20016;-81
2023/12/18 01:04:51;;;;;;;4.20;1.73;;;0.60;99.90;;;;;;4936069;29;20054;-84
2023/12/18 01:07:17;;;;;;;3.50;1.75;;;0.50;99.90;;;;;;4954898;28;20110;-82
2023/12/18 01:09:43;;;;;;;7.45;1.70;;;0.60;99.90;;;;;;4965397;28;20425;-81
2023/12/18 01:12:09;;;;;;;3.08;1.90;;;0.60;99.90;;;;;;4974505;28;20019;-81
2023/12/18 01:14:35;;;;;;;6.38;1.70;;;0.60;99.90;;;;;;4956077;28;20118;-81
2023/12/18 01:17:01;;;;;;;5.57;1.60;;;0.60;99.90;;;;;;4939881;29;20028;-82
2023/12/18 01:19:27;;;;;;;2.63;1.10;;;0.60;99.90;;;;;;4957379;28;20027;-81
2023/12/18 01:21:53;;;;;;;4.50;1.42;;;0.60;99.90;;;;;;4957056;28;20027;-82
2023/12/18 01:24:19;;;;;;;4.18;2.00;;;0.60;99.90;;;;;;4956891;28;20051;-82
2023/12/18 01:26:45;;;;;;;9.07;1.75;;;0.60;99.90;;;;;;4956949;29;20019;-81
2023/12/18 01:29:10;;;;;;;6.85;2.03;;;0.60;99.90;;;;;;4955823;28;20027;-81
2023/12/18 01:31:36;;;;;;;3.65;2.17;;;0.60;99.90;;;;;;4963049;28;20491;-83
2023/12/18 01:34:02;;;;;;;3.67;1.67;;;0.60;99.90;;;;;;4954146;29;20118;-81
2023/12/18 01:36:28;;;;;;;8.38;1.75;;;0.60;99.90;;;;;;4971926;28;20027;-81
2023/12/18 01:38:54;;;;;;;4.65;2.03;;;0.60;99.90;;;;;;4976201;28;20094;-81
2023/12/18 01:41:20;;;;;;;5.53;2.20;;;0.60;99.90;;;;;;4958634;28;20065;-82
2023/12/18 01:43:46;;;;;;;7.82;2.42;;;0.60;99.90;;;;;;4976383;28;20015;-81
2023/12/18 01:46:21;;;;;;;10.05;2.45;;;0.60;99.90;;;;;;4964767;28;20031;-81
2023/12/18 01:48:48;;;;;;;2.85;1.33;;;0.60;99.90;;;;;;4955886;28;20023;-83
2023/12/18 01:51:14;;;;;;;6.28;1.90;;;0.60;99.90;;;;;;4956482;29;20035;-81
2023/12/18 01:53:45;;;;;;;5.60;1.63;;;0.50;99.90;;;;;;4956166;28;20042;-83
2023/12/18 01:56:14;;;;;;;12.70;1.85;;;0.50;99.90;;;;;;4977594;28;20027;-82
2023/12/18 01:58:41;;;;;;;2.30;0.90;;;0.50;99.90;;;;;;4975530;28;20015;-81
2023/12/18 02:01:08;;;;;;;3.72;1.60;;;0.50;99.90;;;;;;4965331;28;20026;-82
2023/12/18 02:03:35;;;;;;;4.78;2.28;;;0.50;99.90;;;;;;4964214;28;20081;-82
2023/12/18 02:06:03;;;;;;;4.07;2.13;;;0.50;99.90;;;;;;4957799;28;20035;-81
2023/12/18 02:08:33;;;;;;;8.80;2.92;;;0.40;99.90;;;;;;4955675;28;20477;-80
2023/12/18 02:11:00;;;;;;;7.57;2.35;;;0.40;99.90;;;;;;4936244;29;20504;-80
2023/12/18 02:13:26;;;;;;;5.57;1.55;;;0.40;99.90;;;;;;4959871;28;20473;-81
2023/12/18 02:15:52;;;;;;;4.30;1.52;;;0.30;99.90;;;;;;4962484;28;20396;-80
2023/12/18 02:18:18;;;;;;;13.13;2.35;;;0.30;99.90;;;;;;4972412;28;20027;-81
2023/12/18 02:20:44;;;;;;;8.18;2.20;;;0.30;99.90;;;;;;4941999;28;20357;-80
2023/12/18 02:23:11;;;;;;;5.35;1.83;;;0.30;99.90;;;;;;4976256;28;20365;-81
2023/12/18 02:25:37;;;;;;;7.10;2.03;;;0.30;99.90;;;;;;4962027;28;20055;-81
2023/12/18 02:28:07;;;;;;;8.93;2.10;;;0.30;99.90;;;;;;4963138;28;20027;-81
2023/12/18 02:30:33;;;;;;;4.50;1.85;;;0.30;99.90;;;;;;4982192;28;20433;-80
2023/12/18 02:32:59;;;;;;;7.50;2.22;;;0.30;99.90;;;;;;4976106;28;20046;-80
2023/12/18 02:35:25;;;;;;;5.60;1.42;;;0.20;99.90;;;;;;4962568;28;20039;-82
2023/12/18 02:37:51;;;;;;;6.30;2.00;;;0.20;99.90;;;;;;4976847;28;20073;-81
2023/12/18 02:40:17;;;;;;;6.55;2.55;;;0.20;99.90;;;;;;4957695;28;20480;-82
2023/12/18 02:42:43;;;;;;;6.50;2.50;;;0.20;99.90;;;;;;4974675;28;20023;-81
2023/12/18 02:45:09;;;;;;;7.18;2.80;;;0.20;99.90;;;;;;4974576;28;20035;-80
2023/12/18 02:47:35;;;;;;;6.93;2.20;;;0.20;99.90;;;;;;4974731;28;20027;-80
2023/12/18 02:50:01;;;;;;;4.05;1.55;;;0.20;99.90;;;;;;4971242;28;20039;-81
2023/12/18 02:52:27;;;;;;;4.30;2.03;;;0.10;99.90;;;;;;4963587;28;20073;-80
2023/12/18 02:54:53;;;;;;;4.85;1.65;;;0.10;99.90;;;;;;4958645;28;20038;-82
2023/12/18 02:57:19;;;;;;;10.18;2.83;;;0.10;99.90;;;;;;4970562;28;20022;-83
2023/12/18 02:59:44;;;;;;;9.57;2.72;;;0.10;99.90;;;;;;4955362;29;20039;-81
2023/12/18 03:02:10;;;;;;;7.05;1.88;;;0.10;99.90;;;;;;4955212;29;20110;-81
2023/12/18 03:04:43;;;;;;;7.45;1.95;;;0.10;99.90;;;;;;4955995;29;20051;-80
2023/12/18 03:07:09;;;;;;;6.25;1.60;;;0.10;99.90;;;;;;4977039;28;20006;-82
2023/12/18 03:09:35;;;;;;;7.40;2.05;;;0.10;99.90;;;;;;4968465;28;20111;-80
2023/12/18 03:12:01;;;;;;;6.00;1.48;;;0.10;99.90;;;;;;4974452;28;20047;-81
2023/12/18 03:14:27;;;;;;;11.63;2.08;;;0.00;99.90;;;;;;4974118;28;20038;-81
2023/12/18 03:16:53;;;;;;;20.65;3.40;;;0.00;99.90;;;;;;4956633;28;20480;-81
2023/12/18 03:19:19;;;;;;;9.35;3.45;;;0.00;99.90;;;;;;4958257;28;20046;-81
2023/12/18 03:21:51;;;;;;;9.05;2.35;;;0.00;99.90;;;;;;4963325;28;20465;-79
2023/12/18 03:24:17;;;;;;;5.97;2.25;;;0.00;99.90;;;;;;4951889;28;20042;-81
2023/12/18 03:26:43;;;;;;;6.85;3.10;;;0.00;99.90;;;;;;4980360;28;20027;-80
2023/12/18 03:29:09;;;;;;;6.40;3.10;;;0.00;99.90;;;;;;4959765;28;20109;-80
2023/12/18 03:31:35;;;;;;;6.63;2.58;;;0.00;99.90;;;;;;4974091;28;20031;-80
2023/12/18 03:34:01;;;;;;;6.20;2.33;;;0.00;99.90;;;;;;4965039;28;20050;-80
2023/12/18 03:36:26;;;;;;;9.27;2.85;;;0.00;99.90;;;;;;4968973;28;20114;-80
2023/12/18 03:38:52;;;;;;;11.20;2.80;;;0.00;99.90;;;;;;4974500;28;20069;-79
2023/12/18 03:41:18;;;;;;;7.07;2.50;;;0.00;99.90;;;;;;4968140;28;20026;-80
2023/12/18 03:43:44;;;;;;;6.88;2.25;;;0.00;99.90;;;;;;4973554;28;20019;-80
2023/12/18 03:46:10;;;;;;;6.30;2.72;;;0.00;99.90;;;;;;4973931;28;20513;-79
2023/12/18 03:48:36;;;;;;;8.32;2.88;;;0.00;99.90;;;;;;4973503;28;20102;-80
2023/12/18 03:51:02;;;;;;;5.88;2.45;;;0.00;99.90;;;;;;4956139;28;20071;-79
2023/12/18 03:53:28;;;;;;;8.70;2.58;;;0.00;99.90;;;;;;4968736;28;20054;-80
2023/12/18 03:55:53;;;;;;;4.82;2.72;;;0.00;99.90;;;;;;4970512;28;20023;-82
2023/12/18 03:58:19;;;;;;;4.03;2.42;;;0.00;99.90;;;;;;4949619;28;20027;-80
2023/12/18 04:00:45;;;;;;;13.35;3.25;;;0.00;99.90;;;;;;4953228;28;20539;-81
2023/12/18 04:03:14;;;;;;;9.90;3.15;;;0.00;99.90;;;;;;4973500;28;20046;-81
2023/12/18 04:05:40;;;;;;;4.40;2.35;;;0.00;99.90;;;;;;4942297;28;20029;-80
2023/12/18 04:08:06;;;;;;;10.85;3.22;;;0.00;99.90;;;;;;4973260;28;20019;-79
2023/12/18 04:10:31;;;;;;;10.68;3.03;;;0.00;99.90;;;;;;4955754;28;20125;-81
2023/12/18 04:12:57;;;;;;;6.72;1.95;;;0.10;99.90;;;;;;4965582;28;20031;-80
2023/12/18 04:15:24;;;;;;;5.13;2.05;;;0.10;99.90;;;;;;4950021;28;20077;-80
2023/12/18 04:17:50;;;;;;;4.28;1.80;;;0.10;99.90;;;;;;4956440;28;20019;-81
2023/12/18 04:20:16;;;;;;;6.28;2.58;;;0.10;99.90;;;;;;4973481;28;20478;-80
2023/12/18 04:22:42;;;;;;;6.53;2.53;;;0.10;99.90;;;;;;4975049;28;20027;-79
2023/12/18 04:25:08;;;;;;;6.80;3.30;;;0.10;99.90;;;;;;4979264;28;20050;-81
2023/12/18 04:27:34;;;;;;;6.05;2.90;;;0.10;99.90;;;;;;4981626;28;20027;-80
2023/12/18 04:30:00;;;;;;;5.55;2.75;;;0.10;99.90;;;;;;4952362;28;20023;-82
2023/12/18 04:32:26;;;;;;;8.23;2.50;;;0.10;99.90;;;;;;4956820;28;20102;-80
2023/12/18 04:34:52;;;;;;;6.00;2.45;;;0.10;99.90;;;;;;4960169;28;20500;-81
2023/12/18 04:37:18;;;;;;;7.15;2.53;;;0.10;99.90;;;;;;4974205;28;20031;-82
2023/12/18 04:39:44;;;;;;;10.57;2.85;;;0.10;99.90;;;;;;4961077;28;20052;-80
2023/12/18 04:42:10;;;;;;;8.85;3.35;;;0.10;99.90;;;;;;4975233;28;20023;-81
2023/12/18 04:44:36;;;;;;;11.85;3.20;;;0.10;99.90;;;;;;4970255;28;20437;-79
2023/12/18 04:47:02;;;;;;;9.00;3.20;;;0.10;99.90;;;;;;4974093;28;20047;-81
2023/12/18 04:49:28;;;;;;;8.02;4.55;;;0.20;99.90;;;;;;4978262;28;20109;-81
2023/12/18 04:51:54;;;;;;;9.55;3.30;;;0.10;99.90;;;;;;4964017;29;20442;-81
2023/12/18 04:54:20;;;;;;;3.85;2.50;;;0.20;99.90;;;;;;4961922;28;20776;-80
2023/12/18 04:56:46;;;;;;;11.40;4.10;;;0.20;99.90;;;;;;4971555;28;20027;-81
2023/12/18 04:59:13;;;;;;;11.40;3.38;;;0.20;99.90;;;;;;4953332;29;20073;-81
2023/12/18 05:01:39;;;;;;;8.82;3.40;;;0.30;99.90;;;;;;4957347;28;20400;-82
2023/12/18 05:04:05;;;;;;;8.43;4.30;;;0.20;99.90;;;;;;4956510;28;20098;-82
2023/12/18 05:06:31;;;;;;;12.68;3.05;;;0.20;99.90;;;;;;4958274;28;20477;-79
2023/12/18 05:08:57;;;;;;;5.45;2.47;;;0.20;99.90;;;;;;4940498;28;20086;-83
2023/12/18 05:11:24;;;;;;;5.40;3.08;;;0.30;99.90;;;;;;4955899;28;20035;-80
2023/12/18 05:13:51;;;;;;;10.25;3.60;;;0.20;99.90;;;;;;4956684;28;20027;-81
2023/12/18 05:16:20;;;;;;;7.50;2.90;;;0.20;99.90;;;;;;4951085;29;20110;-80
2023/12/18 05:18:46;;;;;;;10.88;3.75;;;0.20;99.90;;;;;;4933397;29;20131;-81
2023/12/18 05:21:12;;;;;;;7.90;2.80;;;0.20;99.90;;;;;;4956874;29;20042;-80
2023/12/18 05:23:39;;;;;;;5.45;3.53;;;0.20;99.90;;;;;;4948559;28;20473;-80
2023/12/18 05:26:05;;;;;;;9.65;3.70;;;0.30;99.90;;;;;;4956564;28;20063;-80
2023/12/18 05:28:31;;;;;;;13.25;4.20;;;0.20;99.90;;;;;;4957127;28;20027;-80
2023/12/18 05:30:57;;;;;;;7.63;2.92;;;0.20;99.90;;;;;;4956356;28;20034;-81
2023/12/18 05:33:25;;;;;;;6.57;3.45;;;0.30;99.90;;;;;;4956976;28;20023;-80
2023/12/18 05:35:51;;;;;;;8.05;2.78;;;0.30;99.90;;;;;;4966446;28;20488;-80
2023/12/18 05:38:16;;;;;;;8.30;3.40;;;0.30;99.90;;;;;;4958848;28;20023;-80
2023/12/18 05:40:43;;;;;;;7.63;3.70;;;0.30;99.90;;;;;;4955496;28;20038;-81
2023/12/18 05:43:08;;;;;;;12.85;3.95;;;0.40;99.90;;;;;;4955229;28;20497;-81
2023/12/18 05:45:34;;;;;;;15.70;4.15;;;0.40;99.90;;;;;;4956285;28;20035;-79
2023/12/18 05:48:00;;;;;;;11.77;4.45;;;0.40;99.90;;;;;;4957426;29;20516;-82
2023/12/18 05:50:27;;;;;;;10.95;2.80;;;0.40;99.90;;;;;;4955076;28;20453;-80
2023/12/18 05:52:53;;;;;;;7.85;3.05;;;0.40;99.90;;;;;;4958751;28;20177;-82
2023/12/18 05:55:19;;;;;;;9.55;3.45;;;0.30;99.90;;;;;;4957190;28;20117;-80
2023/12/18 05:57:45;;;;;;;8.23;3.50;;;0.40;99.90;;;;;;4956902;28;20023;-80
2023/12/18 06:00:11;;;;;;;10.30;3.65;;;0.40;99.90;;;;;;4939623;28;20031;-80
2023/12/18 06:02:37;;;;;;;5.18;3.30;;;0.40;99.90;;;;;;4968809;28;20027;-81
2023/12/18 06:05:04;;;;;;;10.82;3.60;;;0.40;99.90;;;;;;4956048;29;20563;-80
2023/12/18 06:07:29;;;;;;;5.70;3.72;;;0.40;99.90;;;;;;4935291;28;20153;-81
2023/12/18 06:09:55;;;;;;;9.45;3.40;;;0.40;99.90;;;;;;4938795;29;20125;-81
2023/12/18 06:12:21;;;;;;;4.95;2.63;;;0.40;99.90;;;;;;4956455;28;20038;-81
2023/12/18 06:14:47;;;;;;;9.13;3.85;;;0.50;99.90;;;;;;4959125;28;20089;-80
2023/12/18 06:17:13;;;;;;;9.25;3.80;;;0.40;99.90;;;;;;4955754;29;20038;-80
2023/12/18 06:19:40;;;;;;;6.93;3.45;;;0.50;99.90;;;;;;4938666;29;20031;-81
2023/12/18 06:22:06;;;;;;;13.85;3.47;;;0.50;99.90;;;;;;4955871;29;20042;-81
2023/12/18 06:24:32;;;;;;;16.33;4.18;;;0.50;99.90;;;;;;4954339;28;20027;-80
2023/12/18 06:26:59;;;;;;;9.73;4.05;;;0.50;99.90;;;;;;4938615;29;20352;-83
2023/12/18 06:29:27;;;;;;;8.50;3.53;;;0.50;99.90;;;;;;4955764;28;20019;-82
2023/12/18 06:31:54;;;;;;;10.70;3.88;;;0.50;99.90;;;;;;4954472;28;20058;-82
2023/12/18 06:34:20;;;;;;;8.45;4.30;;;0.50;99.90;;;;;;4938316;29;20043;-82
2023/12/18 06:36:46;;;;;;;8.80;5.13;;;0.50;99.90;;;;;;4965672;28;20037;-83
2023/12/18 06:39:12;;;;;;;12.07;4.25;;;0.50;99.90;;;;;;4955390;28;20023;-81
2023/12/18 06:41:38;;;;;;;20.40;5.63;;;0.50;99.90;;;;;;4955422;28;20023;-83
2023/12/18 06:44:05;;;;;;;10.93;5.28;;;0.50;99.90;;;;;;4955253;28;20064;-84
2023/12/18 06:46:33;;;;;;;7.57;3.38;;;0.50;99.90;;;;;;4961365;28;20511;-84
2023/12/18 06:49:01;;;;;;;8.85;3.30;;;0.50;99.90;;;;;;4949617;29;20020;-84
2023/12/18 06:51:27;;;;;;;7.88;4.57;;;0.50;99.90;;;;;;4952858;28;20063;-84
2023/12/18 06:53:53;;;;;;;9.23;4.30;;;0.50;99.90;;;;;;4960851;28;20370;-84
2023/12/18 06:56:18;;;;;;;7.63;3.35;;;0.60;99.90;;;;;;4967834;28;20106;-84
2023/12/18 06:58:45;;;;;;;7.78;4.22;;;0.60;99.90;;;;;;4956641;28;20055;-82
2023/12/18 07:01:11;;;;;;;8.75;4.05;;;0.60;99.90;;;;;;4933212;29;20039;-83
2023/12/18 07:03:36;;;;;;;7.97;4.03;;;0.60;99.90;;;;;;4933179;29;20043;-81
2023/12/18 07:06:03;;;;;;;8.23;4.25;;;0.60;99.90;;;;;;4955030;28;20122;-85
2023/12/18 07:08:29;;;;;;;9.90;5.65;;;0.60;99.90;;;;;;4954928;28;20125;-85
2023/12/18 07:10:58;;;;;;;9.52;4.88;;;0.60;99.90;;;;;;4954742;28;20025;-83
2023/12/18 07:13:24;;;;;;;13.60;4.35;;;0.60;99.90;;;;;;4953966;28;20130;-81
2023/12/18 07:15:50;;;;;;;7.53;4.45;;;0.60;99.90;;;;;;4955453;28;20114;-83
2023/12/18 07:18:17;;;;;;;25.00;19.23;;;0.70;99.90;;;;;;4937714;29;20114;-83
2023/12/18 07:20:43;;;;;;;11.25;4.90;;;0.70;99.90;;;;;;4955458;28;20389;-83
2023/12/18 07:23:10;;;;;;;7.97;3.67;;;0.70;99.90;;;;;;4941735;28;20085;-82
2023/12/18 07:25:37;;;;;;;5.97;3.85;;;0.70;99.90;;;;;;4961305;28;20055;-83
2023/12/18 07:28:07;;;;;;;11.00;4.05;;;0.70;99.90;;;;;;4958130;28;20036;-82
2023/12/18 07:30:33;;;;;;;14.73;8.57;;;0.70;99.90;;;;;;4954389;29;20441;-82
2023/12/18 07:32:59;;;;;;;9.80;4.63;;;0.70;99.90;;;;;;4953270;28;20028;-83
2023/12/18 07:35:25;;;;;;;5.38;3.13;;;0.80;99.90;;;;;;4960967;28;20050;-82
2023/12/18 07:37:51;;;;;;;18.35;3.85;;;0.80;99.90;;;;;;4976026;28;20030;-83
2023/12/18 07:40:19;;;;;;;4.65;3.40;;;0.80;99.90;;;;;;4942659;28;20039;-84
2023/12/18 07:42:45;;;;;;;7.22;3.22;;;0.80;99.90;;;;;;4963455;28;20034;-84
2023/12/18 07:45:11;;;;;;;8.38;2.95;;;0.80;99.90;;;;;;4969623;28;20035;-81
2023/12/18 07:47:37;;;;;;;4.97;2.60;;;0.90;99.90;;;;;;4951534;28;20034;-82
2023/12/18 07:50:07;;;;;;;4.78;2.83;;;0.90;99.90;;;;;;4973417;28;20079;-80
2023/12/18 07:52:33;;;;;;;5.28;2.95;;;0.90;99.90;;;;;;4968954;28;20438;-83
2023/12/18 07:54:59;;;;;;;5.72;3.25;;;0.90;99.90;;;;;;4967503;28;20039;-82
2023/12/18 07:57:25;;;;;;;5.53;3.88;;;0.90;99.90;;;;;;4966671;28;20041;-84
2023/12/18 07:59:51;;;;;;;5.60;2.97;;;1.00;99.90;;;;;;4934592;29;20476;-86
2023/12/18 08:02:17;;;;;;;9.93;4.40;;;1.00;99.90;;;;;;4954372;28;20038;-85
2023/12/18 08:04:43;;;;;;;8.60;4.25;;;1.10;99.90;;;;;;4937062;29;20345;-93
2023/12/18 08:07:09;;;;;;;10.30;3.65;;;1.10;99.90;;;;;;4955713;28;20515;-84
2023/12/18 08:09:35;;;;;;;5.97;3.22;;;1.10;99.90;;;;;;4966144;28;20028;-87
2023/12/18 08:12:00;;;;;;;7.60;3.17;;;1.20;99.90;;;;;;4954304;28;20035;-87
2023/12/18 08:14:26;;;;;;;7.13;4.75;;;1.20;99.90;;;;;;4962548;28;20932;-85
2023/12/18 08:17:00;;;;;;;12.05;4.30;;;1.20;99.90;;;;;;4962305;28;20397;-85
2023/12/18 08:19:26;;;;;;;5.55;3.63;;;1.20;99.90;;;;;;4973744;28;20097;-83
2023/12/18 08:21:52;;;;;;;6.25;3.17;;;1.30;99.90;;;;;;4969942;28;20109;-85
2023/12/18 08:24:18;;;;;;;4.95;2.38;;;1.30;99.90;;;;;;4941469;29;20573;-83
2023/12/18 08:26:50;;;;;;;7.03;2.65;;;1.30;99.90;;;;;;4968156;28;20428;-83
2023/12/18 08:29:16;;;;;;;10.85;4.32;;;1.30;99.90;;;;;;4965578;28;20027;-87
2023/12/18 08:31:42;;;;;;;9.25;4.70;;;1.30;99.90;;;;;;4950020;29;20015;-84
2023/12/18 08:34:08;;;;;;;8.40;3.90;;;1.30;99.90;;;;;;4950506;29;20082;-82
2023/12/18 08:36:36;;;;;;;8.90;3.20;;;1.30;99.90;;;;;;4968199;28;20022;-81
2023/12/18 08:39:02;;;;;;;;;;;1.30;99.90;;;;;;4983304;28;20015;-85
2023/12/18 08:41:28;;;;;;;9.27;5.68;;;1.40;99.90;;;;;;4980452;28;19913;-81
2023/12/18 08:43:54;;;;;;;7.90;3.17;;;1.30;99.90;;;;;;4962496;28;20022;-82
2023/12/18 08:46:20;;;;;;;8.27;4.05;;;1.30;99.90;;;;;;4952487;29;20026;-83
2023/12/18 08:48:46;;;;;;;9.95;4.03;;;1.30;99.90;;;;;;4967913;28;20019;-83
2023/12/18 08:51:12;;;;;;;15.02;10.60;;;1.30;99.90;;;;;;4969428;28;20026;-83
2023/12/18 08:53:38;;;;;;;8.40;4.47;;;1.30;99.90;;;;;;4962110;28;20547;-84
2023/12/18 08:56:04;;;;;;;9.63;5.45;;;1.30;99.90;;;;;;4983332;28;20034;-84
2023/12/18 08:58:31;;;;;;;14.25;8.05;;;1.30;99.90;;;;;;4958156;28;20695;-84
2023/12/18 09:00:58;;;;;;;8.63;4.93;;;1.30;99.90;;;;;;4945088;29;20027;-84
2023/12/18 09:03:23;;;;;;;14.95;5.70;;;1.30;99.90;;;;;;4963190;28;20244;-84
2023/12/18 09:05:49;;;;;;;14.13;6.25;;;1.40;99.90;;;;;;4965766;28;20153;-84
2023/12/18 09:08:16;;;;;;;10.57;5.90;;;1.40;99.90;;;;;;4964323;28;20026;-87
2023/12/18 09:10:42;;;;;;;6.37;4.53;;;1.40;99.90;;;;;;4965179;28;20724;-84
2023/12/18 09:13:08;;;;;;;8.80;4.53;;;1.50;99.90;;;;;;4967007;28;20015;-87
2023/12/18 09:15:34;;;;;;;10.02;3.83;;;1.40;99.90;;;;;;4951175;28;20043;-90
2023/12/18 09:18:00;;;;;;;8.63;3.78;;;1.50;99.90;;;;;;4965203;28;20031;-82
2023/12/18 09:20:26;;;;;;;12.25;5.07;;;1.40;99.90;;;;;;4964491;29;20054;-87
2023/12/18 09:22:52;;;;;;;6.47;3.95;;;1.40;99.90;;;;;;4966004;28;20107;-85
2023/12/18 09:25:18;;;;;;;13.73;6.10;;;1.40;99.90;;;;;;4959185;28;20032;-85
2023/12/18 09:27:44;;;;;;;12.35;6.28;;;1.40;99.90;;;;;;4961417;28;20012;-89
2023/12/18 09:30:10;;;;;;;8.00;5.43;;;1.40;99.90;;;;;;4941740;29;20040;-86
2023/12/18 09:32:36;;;;;;;12.10;6.28;;;1.50;99.90;;;;;;4949120;28;20053;-85
2023/12/18 09:35:02;;;;;;;9.40;6.15;;;1.50;99.90;;;;;;4943040;28;20035;-86
2023/12/18 09:37:28;;;;;;;11.27;5.95;;;1.50;99.90;;;;;;4967358;28;20030;-87
2023/12/18 09:39:54;;;;;;;10.23;6.47;;;1.50;99.90;;;;;;4957314;29;20027;-87
2023/12/18 09:42:20;;;;;;;11.93;6.93;;;1.50;99.90;;;;;;4945373;28;20035;-89
2023/12/18 09:44:47;;;;;;;6.00;4.88;;;1.60;99.90;;;;;;4963648;28;20030;-86
2023/12/18 09:47:13;;;;;;;;;;;1.60;99.90;;;;;;4946349;28;20187;-84
2023/12/18 09:49:40;;;;;;;13.07;4.75;;;1.60;99.90;;;;;;4939728;29;20028;-81
2023/12/18 09:52:11;;;;;;;9.82;5.25;;;1.60;99.90;;;;;;4955264;28;20043;-85
2023/12/18 09:54:42;;;;;;;11.18;6.47;;;1.60;99.90;;;;;;4939511;29;20095;-84
2023/12/18 09:57:13;;;;;;;11.65;5.63;;;1.50;99.90;;;;;;4970687;28;20417;-84
2023/12/18 09:59:39;;;;;;;13.57;10.05;;;1.60;99.90;;;;;;4966812;28;20023;-85
2023/12/18 10:02:07;;;;;;;12.70;6.93;;;1.60;99.90;;;;;;4957565;28;20035;-84
2023/12/18 10:04:32;;;;;;;15.35;7.35;;;1.60;99.90;;;;;;4948599;29;20067;-82
2023/12/18 10:06:59;;;;;;;15.05;7.25;;;1.60;99.90;;;;;;4938342;29;20015;-84
2023/12/18 10:09:25;;;;;;;13.40;7.10;;;1.70;99.90;;;;;;4956024;28;20023;-82
2023/12/18 10:11:51;;;;;;;18.75;9.82;;;1.60;99.90;;;;;;4954608;28;20030;-81
2023/12/18 10:14:17;;;;;;;15.25;7.30;;;1.70;99.90;;;;;;4938482;29;20099;-81
2023/12/18 10:16:43;;;;;;;24.85;8.07;;;1.70;99.90;;;;;;4955790;28;20481;-81
2023/12/18 10:19:10;;;;;;;13.30;7.75;;;1.70;99.90;;;;;;4955543;28;20028;-82
2023/12/18 10:21:39;;;;;;;15.45;7.95;;;1.80;99.90;;;;;;4957567;28;20023;-84
2023/12/18 10:24:08;;;;;;;10.68;5.97;;;1.80;99.90;;;;;;4960754;29;20037;-86
2023/12/18 10:26:34;;;;;;;12.57;6.03;;;1.70;99.90;;;;;;4947088;29;20020;-86
2023/12/18 10:29:01;;;;;;;11.18;6.65;;;1.70;99.90;;;;;;4959995;28;20079;-82
2023/12/18 10:31:26;;;;;;;14.17;6.90;;;1.70;99.90;;;;;;4956773;28;20023;-83
2023/12/18 10:33:53;;;;;;;11.35;6.30;;;1.60;99.90;;;;;;4962390;29;20029;-94
2023/12/18 10:36:19;;;;;;;8.38;6.70;;;1.60;99.90;;;;;;4931080;29;20043;-92
2023/12/18 10:38:50;;;;;;;10.52;5.25;;;1.60;99.90;;;;;;4930198;29;20047;-92
2023/12/18 10:41:25;;;;;;;15.57;6.03;;;1.60;99.90;;;;;;4947139;29;20443;-93
2023/12/18 10:43:52;;;;;;;10.65;6.05;;;1.60;99.90;;;;;;4965761;28;20027;-94
2023/12/18 10:46:21;;;;;;;12.57;7.13;;;1.60;99.90;;;;;;4951790;28;20026;-85
2023/12/18 10:48:50;;;;;;;9.13;5.10;;;1.60;99.90;;;;;;4959861;28;20035;-84
2023/12/18 10:51:22;;;;;;;11.25;6.78;;;1.60;99.90;;;;;;4967331;29;20083;-84
2023/12/18 10:53:55;;;;;;;9.77;6.18;;;1.70;99.90;;;;;;4962698;28;20028;-87
2023/12/18 10:56:23;;;;;;;11.77;6.65;;;1.70;99.90;;;;;;4957710;29;20409;-85
2023/12/18 10:58:51;;;;;;;11.07;4.97;;;1.70;99.90;;;;;;4941668;29;20491;-83
2023/12/18 11:01:17;;;;;;;10.90;5.88;;;1.70;99.90;;;;;;4949664;28;20027;-82
2023/12/18 11:03:44;;;;;;;9.38;5.63;;;1.70;99.90;;;;;;4944781;28;20066;-82
2023/12/18 11:06:11;;;;;;;13.40;9.27;;;1.80;99.90;;;;;;4939353;29;20024;-80
2023/12/18 11:08:37;;;;;;;12.88;7.30;;;1.80;99.90;;;;;;4953141;28;20126;-81
2023/12/18 11:11:05;;;;;;;6.97;4.90;;;1.80;99.90;;;;;;4956261;28;20042;-82
2023/12/18 11:13:57;;;;;;;14.98;6.43;;;1.80;99.90;;;;;;4940684;28;20460;-82
2023/12/18 11:16:58;;;;;;;11.45;6.45;;;1.90;99.90;;;;;;4915928;28;20071;-81
2023/12/18 11:19:45;;;;;;;16.05;6.78;;;1.80;99.90;;;;;;4955478;28;20027;-82
2023/12/18 11:22:14;;;;;;;10.32;5.15;;;1.70;99.90;;;;;;4953200;28;20015;-83
2023/12/18 11:24:40;;;;;;;9.48;5.28;;;1.80;99.90;;;;;;4954271;28;20031;-80
2023/12/18 11:27:07;;;;;;;14.35;7.90;;;1.80;99.90;;;;;;4947411;28;20365;-81
2023/12/18 11:29:43;;;;;;;10.13;5.23;;;1.80;99.90;;;;;;4961608;28;20027;-82
2023/12/18 11:32:32;;;;;;;9.65;5.78;;;1.80;99.90;;;;;;4960659;28;20261;-83
2023/12/18 11:34:58;;;;;;;12.52;5.63;;;1.80;99.90;;;;;;4950229;29;20150;-83
2023/12/18 11:37:24;;;;;;;16.48;9.10;;;1.80;99.90;;;;;;4961475;28;20098;-83
2023/12/18 11:39:51;;;;;;;7.25;5.50;;;1.80;99.90;;;;;;4958269;28;20500;-84
2023/12/18 11:42:55;;;;;;;7.95;4.03;;;1.80;99.90;;;;;;4959190;28;20066;-85
2023/12/18 11:45:25;;;;;;;20.38;15.82;;;1.80;99.90;;;;;;4958332;28;20106;-84
2023/12/18 11:47:57;;;;;;;7.20;3.42;;;1.80;99.90;;;;;;4944530;28;20093;-84
2023/12/18 11:50:27;;;;;;;6.30;3.55;;;1.80;99.90;;;;;;4967497;28;20030;-85
2023/12/18 11:52:56;;;;;;;8.68;3.53;;;1.80;99.90;;;;;;4949307;28;20036;-84
2023/12/18 11:55:37;;;;;;;13.88;10.52;;;1.90;99.90;;;;;;4951821;29;20035;-84
2023/12/18 11:58:04;;;;;;;5.43;3.92;;;2.00;99.90;;;;;;4961306;29;20024;-84
2023/12/18 12:00:39;;;;;;;7.10;5.15;;;1.90;99.90;;;;;;4954971;28;20023;-87
2023/12/18 12:03:05;;;;;;;7.20;4.60;;;2.00;99.90;;;;;;4959157;28;20051;-83
2023/12/18 12:05:32;;;;;;;8.20;4.40;;;1.90;99.90;;;;;;4960941;28;20022;-88
2023/12/18 12:08:00;;;;;;;16.08;12.45;;;2.00;99.90;;;;;;4954169;28;20023;-85
2023/12/18 12:10:27;;;;;;;5.13;3.47;;;1.90;99.90;;;;;;4971358;28;20027;-86
2023/12/18 12:13:00;;;;;;;4.35;2.75;;;1.90;99.90;;;;;;4974778;28;20074;-85
2023/12/18 12:15:27;;;;;;;7.50;4.72;;;2.00;99.90;;;;;;4970455;28;20118;-84
2023/12/18 12:18:04;;;;;;;8.82;4.55;;;2.00;99.90;;;;;;4944313;28;20715;-80
2023/12/18 12:20:30;;;;;;;15.60;9.60;;;2.00;99.90;;;;;;4955329;28;20106;-82
2023/12/18 12:22:57;;;;;;;9.00;7.17;;;2.10;99.90;;;;;;4962204;28;20042;-85
2023/12/18 12:25:23;;;;;;;6.73;2.67;;;2.10;99.90;;;;;;4968604;28;20417;-84
2023/12/18 12:27:53;;;;;;;3.17;2.03;;;2.10;99.90;;;;;;4965789;28;20027;-84
2023/12/18 12:30:21;;;;;;;7.93;4.30;;;2.10;99.90;;;;;;4972714;28;20139;-84
2023/12/18 12:32:47;;;;;;;6.43;3.58;;;2.10;99.90;;;;;;4967954;28;20026;-84
2023/12/18 12:35:16;;;;;;;6.60;4.18;;;2.10;99.90;;;;;;4937460;29;20566;-85
2023/12/18 12:37:43;;;;;;;4.72;3.85;;;2.20;99.90;;;;;;4954429;28;20027;-85
2023/12/18 12:40:09;;;;;;;5.80;3.75;;;2.20;99.90;;;;;;4955242;28;20077;-84
2023/12/18 12:42:38;;;;;;;3.40;2.20;;;2.10;99.90;;;;;;4956360;28;20027;-85
2023/12/18 12:45:15;;;;;;;4.57;2.80;;;2.20;99.90;;;;;;4941461;28;20033;-85
2023/12/18 12:47:41;;;;;;;6.68;3.10;;;2.20;99.90;;;;;;4939415;29;20090;-86
2023/12/18 12:50:08;;;;;;;6.60;2.42;;;2.20;99.90;;;;;;4949001;28;20027;-86
2023/12/18 12:52:38;;;;;;;4.82;2.50;;;2.20;99.90;;;;;;4953324;28;20023;-86
2023/12/18 12:55:07;;;;;;;3.53;2.25;;;2.20;99.90;;;;;;4940738;29;20042;-89